sensor_id;sensor_type;location;lat;lon;timestamp;pressure;altitude;pressure_sealevel;temperature;humidity
10992;BME280;5549;47.028;15.514;2024-02-16T00:01:36;96957.03;;;9.59;55.59
10992;BME280;5549;47.028;15.514;2024-02-16T00:04:03;96960.59;;;9.58;56.04
10992;BME280;5549;47.028;15.514;2024-02-16T00:06:31;96952.84;;;9.56;55.85
10992;BME280;5549;47.028;15.514;2024-02-16T00:09:02;96961.06;;;9.52;56.06
10992;BME280;5549;47.028;15.514;2024-02-16T00:11:35;96960.56;;;9.47;56.44
10992;BME280;5549;47.028;15.514;2024-02-16T00:14:04;96962.69;;;9.42;56.56
10992;BME280;5549;47.028;15.514;2024-02-16T00:16:35;96956.81;;;9.38;57.21
10992;BME280;5549;47.028;15.514;2024-02-16T00:19:03;96955.25;;;9.36;56.90
10992;BME280;5549;47.028;15.514;2024-02-16T00:21:31;96958.72;;;9.36;56.94
10992;BME280;5549;47.028;15.514;2024-02-16T00:24:01;96968.25;;;9.37;56.82
10992;BME280;5549;47.028;15.514;2024-02-16T00:26:31;96969.09;;;9.38;56.36
10992;BME280;5549;47.028;15.514;2024-02-16T00:29:01;96968.38;;;9.36;56.52
10992;BME280;5549;47.028;15.514;2024-02-16T00:31:31;96957.88;;;9.36;56.04
10992;BME280;5549;47.028;15.514;2024-02-16T00:34:00;96954.53;;;9.33;55.85
10992;BME280;5549;47.028;15.514;2024-02-16T00:36:30;96955.59;;;9.31;56.27
10992;BME280;5549;47.028;15.514;2024-02-16T00:39:00;96950.47;;;9.29;56.62
10992;BME280;5549;47.028;15.514;2024-02-16T00:41:30;96958.31;;;9.29;56.67
10992;BME280;5549;47.028;15.514;2024-02-16T00:43:57;96957.59;;;9.27;56.64
10992;BME280;5549;47.028;15.514;2024-02-16T00:46:27;96953.41;;;9.25;56.54
10992;BME280;5549;47.028;15.514;2024-02-16T00:48:55;96951.13;;;9.20;57.31
10992;BME280;5549;47.028;15.514;2024-02-16T00:51:24;96951.13;;;9.20;56.95
10992;BME280;5549;47.028;15.514;2024-02-16T00:53:54;96946.72;;;9.21;56.90
10992;BME280;5549;47.028;15.514;2024-02-16T00:56:24;96948.50;;;9.20;56.81
10992;BME280;5549;47.028;15.514;2024-02-16T00:58:52;96948.72;;;9.17;57.18
10992;BME280;5549;47.028;15.514;2024-02-16T01:01:20;96951.56;;;9.14;57.16
10992;BME280;5549;47.028;15.514;2024-02-16T01:03:50;96948.00;;;9.15;56.86
10992;BME280;5549;47.028;15.514;2024-02-16T01:06:22;96948.84;;;9.16;56.65
10992;BME280;5549;47.028;15.514;2024-02-16T01:08:52;96945.38;;;9.15;56.90
10992;BME280;5549;47.028;15.514;2024-02-16T01:11:20;96948.13;;;9.38;62.55
10992;BME280;5549;47.028;15.514;2024-02-16T01:13:48;96946.31;;;9.62;64.38
10992;BME280;5549;47.028;15.514;2024-02-16T01:16:16;96946.63;;;9.81;62.97
10992;BME280;5549;47.028;15.514;2024-02-16T01:18:44;96946.91;;;10.01;61.63
10992;BME280;5549;47.028;15.514;2024-02-16T01:21:12;96941.44;;;10.04;58.83
10992;BME280;5549;47.028;15.514;2024-02-16T01:23:41;96942.13;;;9.94;57.23
10992;BME280;5549;47.028;15.514;2024-02-16T01:26:09;96950.47;;;9.88;56.76
10992;BME280;5549;47.028;15.514;2024-02-16T01:28:37;96944.72;;;9.83;56.53
10992;BME280;5549;47.028;15.514;2024-02-16T01:31:05;96942.28;;;9.69;56.60
10992;BME280;5549;47.028;15.514;2024-02-16T01:33:32;96940.34;;;9.60;56.83
10992;BME280;5549;47.028;15.514;2024-02-16T01:36:03;96946.03;;;9.54;56.68
10992;BME280;5549;47.028;15.514;2024-02-16T01:38:30;96936.72;;;9.50;56.68
10992;BME280;5549;47.028;15.514;2024-02-16T01:41:02;96934.56;;;9.44;56.18
10992;BME280;5549;47.028;15.514;2024-02-16T01:43:33;96939.31;;;9.39;56.61
10992;BME280;5549;47.028;15.514;2024-02-16T01:46:03;96937.03;;;9.34;56.27
10992;BME280;5549;47.028;15.514;2024-02-16T01:48:31;96937.34;;;9.29;56.46
10992;BME280;5549;47.028;15.514;2024-02-16T01:51:01;96947.34;;;9.24;56.83
10992;BME280;5549;47.028;15.514;2024-02-16T01:53:31;96942.53;;;9.18;56.71
10992;BME280;5549;47.028;15.514;2024-02-16T01:55:59;96940.25;;;9.14;57.02
10992;BME280;5549;47.028;15.514;2024-02-16T01:58:28;96944.78;;;9.12;56.90
10992;BME280;5549;47.028;15.514;2024-02-16T02:00:56;96937.13;;;9.09;56.75
10992;BME280;5549;47.028;15.514;2024-02-16T02:03:26;96940.91;;;9.05;56.59
10992;BME280;5549;47.028;15.514;2024-02-16T02:05:56;96940.31;;;9.01;56.49
10992;BME280;5549;47.028;15.514;2024-02-16T02:08:25;96938.84;;;8.97;56.65
10992;BME280;5549;47.028;15.514;2024-02-16T02:10:56;96935.63;;;8.93;56.77
10992;BME280;5549;47.028;15.514;2024-02-16T02:13:24;96936.78;;;8.89;57.00
10992;BME280;5549;47.028;15.514;2024-02-16T02:15:56;96936.06;;;8.87;56.81
10992;BME280;5549;47.028;15.514;2024-02-16T02:18:25;96939.94;;;8.82;57.42
10992;BME280;5549;47.028;15.514;2024-02-16T02:20:55;96928.63;;;8.81;57.36
10992;BME280;5549;47.028;15.514;2024-02-16T02:23:24;96933.25;;;8.78;57.75
10992;BME280;5549;47.028;15.514;2024-02-16T02:25:54;96920.25;;;8.76;57.71
10992;BME280;5549;47.028;15.514;2024-02-16T02:28:25;96922.03;;;8.76;57.91
10992;BME280;5549;47.028;15.514;2024-02-16T02:30:53;96918.69;;;8.74;57.77
10992;BME280;5549;47.028;15.514;2024-02-16T02:33:24;96910.84;;;8.74;57.56
10992;BME280;5549;47.028;15.514;2024-02-16T02:35:52;96916.19;;;8.72;57.44
10992;BME280;5549;47.028;15.514;2024-02-16T02:38:23;96911.78;;;8.73;57.50
10992;BME280;5549;47.028;15.514;2024-02-16T02:40:54;96919.75;;;8.71;57.43
10992;BME280;5549;47.028;15.514;2024-02-16T02:43:22;96914.63;;;8.70;57.80
10992;BME280;5549;47.028;15.514;2024-02-16T02:45:50;96916.50;;;8.67;58.09
10992;BME280;5549;47.028;15.514;2024-02-16T02:48:19;96921.22;;;8.62;59.00
10992;BME280;5549;47.028;15.514;2024-02-16T02:50:50;96911.91;;;8.58;59.58
10992;BME280;5549;47.028;15.514;2024-02-16T02:53:20;96914.00;;;8.53;59.65
10992;BME280;5549;47.028;15.514;2024-02-16T02:55:50;96909.19;;;8.47;60.29
10992;BME280;5549;47.028;15.514;2024-02-16T02:58:21;96911.41;;;8.41;60.31
10992;BME280;5549;47.028;15.514;2024-02-16T03:00:51;96911.09;;;8.45;60.09
10992;BME280;5549;47.028;15.514;2024-02-16T03:03:19;96905.22;;;8.42;60.02
10992;BME280;5549;47.028;15.514;2024-02-16T03:05:52;96903.78;;;8.38;60.26
10992;BME280;5549;47.028;15.514;2024-02-16T03:08:19;96898.66;;;8.36;60.60
10992;BME280;5549;47.028;15.514;2024-02-16T03:10:51;96894.47;;;8.33;60.66
10992;BME280;5549;47.028;15.514;2024-02-16T03:13:22;96899.78;;;8.32;60.67
10992;BME280;5549;47.028;15.514;2024-02-16T03:15:50;96897.16;;;8.32;60.75
10992;BME280;5549;47.028;15.514;2024-02-16T03:18:23;96898.09;;;8.31;60.81
10992;BME280;5549;47.028;15.514;2024-02-16T03:20:54;96905.31;;;8.27;60.99
10992;BME280;5549;47.028;15.514;2024-02-16T03:23:28;96903.75;;;8.25;60.80
10992;BME280;5549;47.028;15.514;2024-02-16T03:26:00;96908.78;;;8.28;60.28
10992;BME280;5549;47.028;15.514;2024-02-16T03:28:28;96912.84;;;8.32;59.89
10992;BME280;5549;47.028;15.514;2024-02-16T03:31:01;96903.16;;;8.34;59.57
10992;BME280;5549;47.028;15.514;2024-02-16T03:33:35;96906.88;;;8.30;60.27
10992;BME280;5549;47.028;15.514;2024-02-16T03:36:06;96906.16;;;8.28;60.33
10992;BME280;5549;47.028;15.514;2024-02-16T03:38:37;96907.09;;;8.27;60.65
10992;BME280;5549;47.028;15.514;2024-02-16T03:41:06;96916.84;;;8.25;60.81
10992;BME280;5549;47.028;15.514;2024-02-16T03:43:34;96913.16;;;8.27;60.39
10992;BME280;5549;47.028;15.514;2024-02-16T03:46:03;96912.53;;;8.24;60.70
10992;BME280;5549;47.028;15.514;2024-02-16T03:48:33;96918.81;;;8.21;60.89
10992;BME280;5549;47.028;15.514;2024-02-16T03:51:04;96919.88;;;8.19;61.13
10992;BME280;5549;47.028;15.514;2024-02-16T03:53:32;96921.88;;;8.15;61.12
10992;BME280;5549;47.028;15.514;2024-02-16T03:56:04;96919.25;;;8.15;60.75
10992;BME280;5549;47.028;15.514;2024-02-16T03:58:36;96921.03;;;8.15;60.88
10992;BME280;5549;47.028;15.514;2024-02-16T04:01:07;96923.44;;;8.18;61.19
10992;BME280;5549;47.028;15.514;2024-02-16T04:03:35;96926.78;;;8.20;60.45
10992;BME280;5549;47.028;15.514;2024-02-16T04:06:14;96930.13;;;8.22;60.04
10992;BME280;5549;47.028;15.514;2024-02-16T04:08:42;96923.22;;;8.21;60.29
10992;BME280;5549;47.028;15.514;2024-02-16T04:11:15;96929.09;;;8.24;59.62
10992;BME280;5549;47.028;15.514;2024-02-16T04:13:49;96921.34;;;8.23;59.25
10992;BME280;5549;47.028;15.514;2024-02-16T04:16:18;96928.44;;;8.21;59.20
10992;BME280;5549;47.028;15.514;2024-02-16T04:19:05;96926.69;;;8.21;59.32
10992;BME280;5549;47.028;15.514;2024-02-16T04:21:39;96927.50;;;8.22;59.20
10992;BME280;5549;47.028;15.514;2024-02-16T04:24:24;96923.22;;;8.21;58.82
10992;BME280;5549;47.028;15.514;2024-02-16T04:27:03;96929.28;;;8.21;59.01
10992;BME280;5549;47.028;15.514;2024-02-16T04:29:38;96924.06;;;8.21;59.04
10992;BME280;5549;47.028;15.514;2024-02-16T04:32:11;96926.78;;;8.20;58.91
10992;BME280;5549;47.028;15.514;2024-02-16T04:34:39;96933.91;;;8.18;59.22
10992;BME280;5549;47.028;15.514;2024-02-16T04:37:07;96931.50;;;8.15;59.50
10992;BME280;5549;47.028;15.514;2024-02-16T04:39:35;96933.16;;;8.16;59.18
10992;BME280;5549;47.028;15.514;2024-02-16T04:42:08;96931.69;;;8.12;59.37
10992;BME280;5549;47.028;15.514;2024-02-16T04:44:37;96932.00;;;8.07;59.13
10992;BME280;5549;47.028;15.514;2024-02-16T04:47:08;96929.59;;;8.04;59.61
10992;BME280;5549;47.028;15.514;2024-02-16T04:49:40;96932.31;;;8.02;59.34
10992;BME280;5549;47.028;15.514;2024-02-16T04:52:10;96936.81;;;8.00;58.90
10992;BME280;5549;47.028;15.514;2024-02-16T04:54:41;96934.41;;;7.97;58.90
10992;BME280;5549;47.028;15.514;2024-02-16T04:57:12;96933.78;;;7.94;59.38
10992;BME280;5549;47.028;15.514;2024-02-16T04:59:40;96927.81;;;7.92;59.40
10992;BME280;5549;47.028;15.514;2024-02-16T05:02:12;96927.81;;;7.92;58.78
10992;BME280;5549;47.028;15.514;2024-02-16T05:04:41;96926.16;;;7.91;59.10
10992;BME280;5549;47.028;15.514;2024-02-16T05:07:11;96930.75;;;7.87;60.06
10992;BME280;5549;47.028;15.514;2024-02-16T05:09:39;96925.72;;;7.84;60.05
10992;BME280;5549;47.028;15.514;2024-02-16T05:12:09;96935.66;;;7.79;60.70
10992;BME280;5549;47.028;15.514;2024-02-16T05:14:41;96936.69;;;7.77;60.60
10992;BME280;5549;47.028;15.514;2024-02-16T05:17:10;96935.13;;;7.74;59.96
10992;BME280;5549;47.028;15.514;2024-02-16T05:19:41;96931.69;;;7.73;60.08
10992;BME280;5549;47.028;15.514;2024-02-16T05:22:11;96934.41;;;7.72;59.85
10992;BME280;5549;47.028;15.514;2024-02-16T05:24:38;96937.94;;;7.71;60.02
10992;BME280;5549;47.028;15.514;2024-02-16T05:27:08;96936.28;;;7.70;59.72
10992;BME280;5549;47.028;15.514;2024-02-16T05:29:41;96937.22;;;7.69;60.32
10992;BME280;5549;47.028;15.514;2024-02-16T05:32:09;96937.31;;;7.67;59.83
10992;BME280;5549;47.028;15.514;2024-02-16T05:34:39;96937.41;;;7.66;59.79
10992;BME280;5549;47.028;15.514;2024-02-16T05:37:07;96937.41;;;7.66;60.23
10992;BME280;5549;47.028;15.514;2024-02-16T05:39:37;96935.75;;;7.65;60.61
10992;BME280;5549;47.028;15.514;2024-02-16T05:42:22;96943.78;;;7.62;60.75
10992;BME280;5549;47.028;15.514;2024-02-16T05:44:51;96933.00;;;7.54;60.99
10992;BME280;5549;47.028;15.514;2024-02-16T05:47:21;96934.88;;;7.52;60.42
10992;BME280;5549;47.028;15.514;2024-02-16T05:49:49;96935.91;;;7.49;60.88
10992;BME280;5549;47.028;15.514;2024-02-16T05:52:19;96941.00;;;7.38;60.90
10992;BME280;5549;47.028;15.514;2024-02-16T05:54:49;96945.50;;;7.36;61.38
10992;BME280;5549;47.028;15.514;2024-02-16T05:57:18;96951.00;;;7.31;61.33
10992;BME280;5549;47.028;15.514;2024-02-16T05:59:48;96963.03;;;7.34;60.74
10992;BME280;5549;47.028;15.514;2024-02-16T06:02:17;96956.97;;;7.33;60.86
10992;BME280;5549;47.028;15.514;2024-02-16T06:04:47;96964.72;;;7.35;60.69
10992;BME280;5549;47.028;15.514;2024-02-16T06:07:16;96964.81;;;7.33;60.48
10992;BME280;5549;47.028;15.514;2024-02-16T06:09:43;96966.59;;;7.33;60.72
10992;BME280;5549;47.028;15.514;2024-02-16T06:12:13;96968.16;;;7.35;60.86
10992;BME280;5549;47.028;15.514;2024-02-16T06:14:42;96972.66;;;7.33;60.74
10992;BME280;5549;47.028;15.514;2024-02-16T06:17:12;96969.94;;;7.35;60.88
10992;BME280;5549;47.028;15.514;2024-02-16T06:19:42;96970.59;;;7.38;61.23
10992;BME280;5549;47.028;15.514;2024-02-16T06:22:10;96979.16;;;7.40;60.86
10992;BME280;5549;47.028;15.514;2024-02-16T06:24:38;96977.91;;;7.46;60.89
10992;BME280;5549;47.028;15.514;2024-02-16T06:27:06;96975.13;;;7.49;61.52
10992;BME280;5549;47.028;15.514;2024-02-16T06:29:36;96978.16;;;7.56;60.83
10992;BME280;5549;47.028;15.514;2024-02-16T06:32:04;96983.00;;;7.62;61.46
10992;BME280;5549;47.028;15.514;2024-02-16T06:34:34;96974.75;;;7.68;61.45
10992;BME280;5549;47.028;15.514;2024-02-16T06:37:05;96977.91;;;7.73;61.04
10992;BME280;5549;47.028;15.514;2024-02-16T06:39:33;96979.38;;;7.77;61.36
10992;BME280;5549;47.028;15.514;2024-02-16T06:42:01;96977.19;;;7.84;61.77
10992;BME280;5549;47.028;15.514;2024-02-16T06:44:32;96973.66;;;7.97;61.52
10992;BME280;5549;47.028;15.514;2024-02-16T06:47:02;96984.97;;;8.23;61.15
10992;BME280;5549;47.028;15.514;2024-02-16T06:49:30;96981.22;;;8.53;61.37
10992;BME280;5549;47.028;15.514;2024-02-16T06:51:58;96986.66;;;8.88;61.20
10992;BME280;5549;47.028;15.514;2024-02-16T06:54:28;96987.38;;;9.26;60.93
10992;BME280;5549;47.028;15.514;2024-02-16T06:56:58;96993.00;;;9.57;60.23
10992;BME280;5549;47.028;15.514;2024-02-16T06:59:25;96991.94;;;9.83;60.05
10992;BME280;5549;47.028;15.514;2024-02-16T07:01:55;96993.69;;;10.07;58.71
10992;BME280;5549;47.028;15.514;2024-02-16T07:04:23;96993.28;;;10.24;57.87
10992;BME280;5549;47.028;15.514;2024-02-16T07:06:50;96997.16;;;10.42;58.30
10992;BME280;5549;47.028;15.514;2024-02-16T07:09:18;96998.50;;;10.70;57.37
10992;BME280;5549;47.028;15.514;2024-02-16T07:11:48;96998.84;;;10.99;55.58
10992;BME280;5549;47.028;15.514;2024-02-16T07:14:16;96995.91;;;11.36;59.17
10992;BME280;5549;47.028;15.514;2024-02-16T07:16:46;96994.78;;;11.93;60.30
10992;BME280;5549;47.028;15.514;2024-02-16T07:19:16;96995.47;;;12.47;59.05
10992;BME280;5549;47.028;15.514;2024-02-16T07:21:44;96983.28;;;12.77;57.55
10992;BME280;5549;47.028;15.514;2024-02-16T07:24:12;96988.06;;;12.93;55.81
10992;BME280;5549;47.028;15.514;2024-02-16T07:26:43;96983.25;;;13.07;55.02
10992;BME280;5549;47.028;15.514;2024-02-16T07:29:12;96986.19;;;13.14;54.29
10992;BME280;5549;47.028;15.514;2024-02-16T07:31:42;96983.31;;;13.17;53.82
10992;BME280;5549;47.028;15.514;2024-02-16T07:34:12;96978.91;;;13.37;52.91
10992;BME280;5549;47.028;15.514;2024-02-16T07:36:42;96977.72;;;13.70;52.26
10992;BME280;5549;47.028;15.514;2024-02-16T07:39:12;96974.41;;;13.97;51.37
10992;BME280;5549;47.028;15.514;2024-02-16T07:41:40;96984.97;;;14.16;50.73
10992;BME280;5549;47.028;15.514;2024-02-16T07:44:07;96978.38;;;14.39;50.37
10992;BME280;5549;47.028;15.514;2024-02-16T07:46:41;96986.72;;;14.64;49.23
10992;BME280;5549;47.028;15.514;2024-02-16T07:49:14;96977.44;;;14.87;48.53
10992;BME280;5549;47.028;15.514;2024-02-16T07:51:44;96980.97;;;15.05;48.13
10992;BME280;5549;47.028;15.514;2024-02-16T07:54:14;96983.78;;;15.04;47.37
10992;BME280;5549;47.028;15.514;2024-02-16T07:56:45;96986.31;;;15.23;47.04
10992;BME280;5549;47.028;15.514;2024-02-16T07:59:15;96981.00;;;15.51;46.80
10992;BME280;5549;47.028;15.514;2024-02-16T08:01:46;96977.53;;;15.78;46.25
10992;BME280;5549;47.028;15.514;2024-02-16T08:04:17;96979.59;;;16.01;45.60
10992;BME280;5549;47.028;15.514;2024-02-16T08:06:46;96985.53;;;16.21;44.54
10992;BME280;5549;47.028;15.514;2024-02-16T08:09:16;96985.00;;;16.35;44.07
10992;BME280;5549;47.028;15.514;2024-02-16T08:11:47;96980.47;;;16.54;43.73
10992;BME280;5549;47.028;15.514;2024-02-16T08:14:14;96983.56;;;16.67;43.58
10992;BME280;5549;47.028;15.514;2024-02-16T08:16:46;96977.38;;;16.84;42.74
10992;BME280;5549;47.028;15.514;2024-02-16T08:19:13;96974.97;;;16.99;42.78
10992;BME280;5549;47.028;15.514;2024-02-16T08:21:41;96971.03;;;17.11;42.56
10992;BME280;5549;47.028;15.514;2024-02-16T08:24:13;96979.56;;;17.31;42.02
10992;BME280;5549;47.028;15.514;2024-02-16T08:26:43;96968.50;;;17.36;41.30
10992;BME280;5549;47.028;15.514;2024-02-16T08:29:10;96980.53;;;17.22;41.48
10992;BME280;5549;47.028;15.514;2024-02-16T08:31:40;96970.09;;;17.28;41.32
10992;BME280;5549;47.028;15.514;2024-02-16T08:34:11;96976.72;;;17.24;40.69
10992;BME280;5549;47.028;15.514;2024-02-16T08:36:39;96978.84;;;17.13;41.20
10992;BME280;5549;47.028;15.514;2024-02-16T08:39:09;96979.91;;;16.94;40.60
10992;BME280;5549;47.028;15.514;2024-02-16T08:41:40;96983.44;;;16.51;40.59
10992;BME280;5549;47.028;15.514;2024-02-16T08:44:08;96984.00;;;16.36;42.06
10992;BME280;5549;47.028;15.514;2024-02-16T08:46:36;96984.47;;;16.32;42.46
10992;BME280;5549;47.028;15.514;2024-02-16T08:49:04;96982.44;;;16.26;42.55
10992;BME280;5549;47.028;15.514;2024-02-16T08:51:34;96990.97;;;16.38;42.01
10992;BME280;5549;47.028;15.514;2024-02-16T08:54:02;96991.66;;;16.40;42.38
10992;BME280;5549;47.028;15.514;2024-02-16T08:56:32;96986.41;;;16.48;42.10
10992;BME280;5549;47.028;15.514;2024-02-16T08:59:02;96986.03;;;16.43;41.79
10992;BME280;5549;47.028;15.514;2024-02-16T09:01:33;96980.84;;;16.59;42.05
10992;BME280;5549;47.028;15.514;2024-02-16T09:04:01;96987.41;;;16.73;41.76
10992;BME280;5549;47.028;15.514;2024-02-16T09:06:29;96978.72;;;16.88;42.45
10992;BME280;5549;47.028;15.514;2024-02-16T09:08:58;96982.91;;;16.99;41.90
10992;BME280;5549;47.028;15.514;2024-02-16T09:11:26;96983.19;;;17.22;41.36
10992;BME280;5549;47.028;15.514;2024-02-16T09:13:54;96973.38;;;17.14;39.74
10992;BME280;5549;47.028;15.514;2024-02-16T09:16:24;96980.06;;;16.92;40.92
10992;BME280;5549;47.028;15.514;2024-02-16T09:18:51;96985.69;;;16.89;42.20
10992;BME280;5549;47.028;15.514;2024-02-16T09:21:19;96981.06;;;16.91;41.80
10992;BME280;5549;47.028;15.514;2024-02-16T09:23:49;96986.94;;;16.77;42.17
10992;BME280;5549;47.028;15.514;2024-02-16T09:26:20;96984.38;;;16.93;42.68
10992;BME280;5549;47.028;15.514;2024-02-16T09:28:49;96983.25;;;16.96;42.39
10992;BME280;5549;47.028;15.514;2024-02-16T09:31:17;96978.47;;;17.08;42.89
10992;BME280;5549;47.028;15.514;2024-02-16T09:33:45;96980.88;;;17.27;42.15
10992;BME280;5549;47.028;15.514;2024-02-16T09:36:15;96976.66;;;17.42;42.60
10992;BME280;5549;47.028;15.514;2024-02-16T09:38:43;96978.03;;;17.62;41.31
10992;BME280;5549;47.028;15.514;2024-02-16T09:41:10;96973.47;;;17.81;41.53
10992;BME280;5549;47.028;15.514;2024-02-16T09:43:39;96973.63;;;17.95;40.75
10992;BME280;5549;47.028;15.514;2024-02-16T09:46:09;96977.81;;;18.14;40.67
10992;BME280;5549;47.028;15.514;2024-02-16T09:48:40;96983.44;;;18.11;40.26
10992;BME280;5549;47.028;15.514;2024-02-16T09:51:12;96982.78;;;18.25;40.48
10992;BME280;5549;47.028;15.514;2024-02-16T09:53:40;96987.75;;;17.88;40.26
10992;BME280;5549;47.028;15.514;2024-02-16T09:56:07;96987.25;;;17.84;39.43
10992;BME280;5549;47.028;15.514;2024-02-16T09:58:39;96983.78;;;18.16;41.34
10992;BME280;5549;47.028;15.514;2024-02-16T10:01:18;96979.78;;;18.37;40.82
10992;BME280;5549;47.028;15.514;2024-02-16T10:03:47;96985.44;;;18.74;40.29
10992;BME280;5549;47.028;15.514;2024-02-16T10:06:16;96979.09;;;18.83;39.84
10992;BME280;5549;47.028;15.514;2024-02-16T10:08:51;96982.59;;;18.59;38.39
10992;BME280;5549;47.028;15.514;2024-02-16T10:11:21;96982.09;;;18.56;38.82
10992;BME280;5549;47.028;15.514;2024-02-16T10:13:58;96978.09;;;18.76;40.09
10992;BME280;5549;47.028;15.514;2024-02-16T10:16:26;96985.38;;;18.90;39.72
10992;BME280;5549;47.028;15.514;2024-02-16T10:18:56;96983.66;;;19.22;40.37
10992;BME280;5549;47.028;15.514;2024-02-16T10:21:25;96976.19;;;19.57;38.89
10992;BME280;5549;47.028;15.514;2024-02-16T10:23:59;96969.59;;;19.75;38.07
10992;BME280;5549;47.028;15.514;2024-02-16T10:26:28;96965.56;;;20.02;38.52
10992;BME280;5549;47.028;15.514;2024-02-16T10:28:58;96966.53;;;20.09;37.42
10992;BME280;5549;47.028;15.514;2024-02-16T10:31:26;96970.44;;;20.22;37.24
10992;BME280;5549;47.028;15.514;2024-02-16T10:34:00;96961.41;;;20.23;36.99
10992;BME280;5549;47.028;15.514;2024-02-16T10:36:35;96964.69;;;19.87;37.02
10992;BME280;5549;47.028;15.514;2024-02-16T10:39:04;96962.91;;;20.02;38.00
10992;BME280;5549;47.028;15.514;2024-02-16T10:41:35;96960.47;;;20.15;37.44
10992;BME280;5549;47.028;15.514;2024-02-16T10:44:07;96969.06;;;20.26;38.37
10992;BME280;5549;47.028;15.514;2024-02-16T10:46:37;96961.66;;;20.13;35.41
10992;BME280;5549;47.028;15.514;2024-02-16T10:49:05;96957.56;;;19.57;36.82
10992;BME280;5549;47.028;15.514;2024-02-16T10:51:37;96951.59;;;19.77;37.50
10992;BME280;5549;47.028;15.514;2024-02-16T10:54:06;96956.94;;;20.00;36.58
10992;BME280;5549;47.028;15.514;2024-02-16T10:56:39;96948.88;;;20.08;36.05
10992;BME280;5549;47.028;15.514;2024-02-16T10:59:10;96943.03;;;20.28;36.62
10992;BME280;5549;47.028;15.514;2024-02-16T11:01:38;96940.06;;;19.85;36.92
10992;BME280;5549;47.028;15.514;2024-02-16T11:04:12;96945.44;;;19.77;35.72
10992;BME280;5549;47.028;15.514;2024-02-16T11:06:46;96947.69;;;19.88;36.31
10992;BME280;5549;47.028;15.514;2024-02-16T11:09:29;96944.47;;;19.70;36.73
10992;BME280;5549;47.028;15.514;2024-02-16T11:12:01;96938.28;;;20.00;35.95
10992;BME280;5549;47.028;15.514;2024-02-16T11:14:37;96949.28;;;19.43;36.85
10992;BME280;5549;47.028;15.514;2024-02-16T11:17:12;96943.59;;;19.46;37.65
10992;BME280;5549;47.028;15.514;2024-02-16T11:19:41;96933.56;;;19.57;36.63
10992;BME280;5549;47.028;15.514;2024-02-16T11:22:09;96933.38;;;19.27;35.65
10992;BME280;5549;47.028;15.514;2024-02-16T11:24:45;96938.53;;;19.29;37.22
10992;BME280;5549;47.028;15.514;2024-02-16T11:27:13;96933.72;;;19.24;35.84
10992;BME280;5549;47.028;15.514;2024-02-16T11:29:46;96930.53;;;19.29;36.17
10992;BME280;5549;47.028;15.514;2024-02-16T11:32:14;96929.53;;;18.82;36.73
10992;BME280;5549;47.028;15.514;2024-02-16T11:34:42;96928.41;;;18.52;37.60
10992;BME280;5549;47.028;15.514;2024-02-16T11:37:13;96922.97;;;18.21;39.00
10992;BME280;5549;47.028;15.514;2024-02-16T11:39:43;96923.44;;;18.41;37.72
10992;BME280;5549;47.028;15.514;2024-02-16T11:42:13;96919.63;;;18.44;39.63
10992;BME280;5549;47.028;15.514;2024-02-16T11:44:52;96922.50;;;18.98;36.28
10992;BME280;5549;47.028;15.514;2024-02-16T11:47:20;96922.84;;;18.95;36.11
10992;BME280;5549;47.028;15.514;2024-02-16T11:50:01;96911.91;;;18.81;36.57
10992;BME280;5549;47.028;15.514;2024-02-16T11:52:29;96907.19;;;19.08;37.21
10992;BME280;5549;47.028;15.514;2024-02-16T11:54:57;96910.44;;;18.71;36.37
10992;BME280;5549;47.028;15.514;2024-02-16T11:57:27;96916.94;;;18.60;38.28
10992;BME280;5549;47.028;15.514;2024-02-16T12:00:05;96910.94;;;18.74;36.20
10992;BME280;5549;47.028;15.514;2024-02-16T12:02:39;96903.75;;;18.83;36.18
10992;BME280;5549;47.028;15.514;2024-02-16T12:05:07;96907.13;;;18.69;36.10
10992;BME280;5549;47.028;15.514;2024-02-16T12:07:37;96902.13;;;18.57;37.16
10992;BME280;5549;47.028;15.514;2024-02-16T12:10:07;96904.63;;;18.59;37.39
10992;BME280;5549;47.028;15.514;2024-02-16T12:12:35;96895.00;;;18.58;37.22
10992;BME280;5549;47.028;15.514;2024-02-16T12:15:06;96897.00;;;18.56;36.16
10992;BME280;5549;47.028;15.514;2024-02-16T12:17:36;96896.16;;;18.55;37.17
10992;BME280;5549;47.028;15.514;2024-02-16T12:20:11;96895.38;;;18.39;37.13
10992;BME280;5549;47.028;15.514;2024-02-16T12:22:40;96899.38;;;18.35;37.13
10992;BME280;5549;47.028;15.514;2024-02-16T12:25:08;96900.06;;;17.80;38.82
10992;BME280;5549;47.028;15.514;2024-02-16T12:27:38;96889.41;;;18.28;37.55
10992;BME280;5549;47.028;15.514;2024-02-16T12:30:11;96894.88;;;18.27;37.95
10992;BME280;5549;47.028;15.514;2024-02-16T12:32:41;96898.22;;;18.29;38.28
10992;BME280;5549;47.028;15.514;2024-02-16T12:35:10;96893.09;;;18.03;37.00
10992;BME280;5549;47.028;15.514;2024-02-16T12:37:38;96897.91;;;17.91;37.47
10992;BME280;5549;47.028;15.514;2024-02-16T12:40:08;96895.53;;;18.45;36.75
10992;BME280;5549;47.028;15.514;2024-02-16T12:42:36;96900.13;;;18.59;36.87
10992;BME280;5549;47.028;15.514;2024-02-16T12:45:08;96902.50;;;18.46;36.24
10992;BME280;5549;47.028;15.514;2024-02-16T12:47:39;96892.50;;;18.65;35.96
10992;BME280;5549;47.028;15.514;2024-02-16T12:50:08;96896.53;;;18.36;36.95
10992;BME280;5549;47.028;15.514;2024-02-16T12:52:38;96889.22;;;18.38;36.53
10992;BME280;5549;47.028;15.514;2024-02-16T12:55:07;96893.06;;;18.19;36.67
10992;BME280;5549;47.028;15.514;2024-02-16T12:57:36;96890.41;;;18.19;37.64
10992;BME280;5549;47.028;15.514;2024-02-16T13:00:09;96894.03;;;17.61;37.25
10992;BME280;5549;47.028;15.514;2024-02-16T13:02:40;96896.28;;;17.32;38.06
10992;BME280;5549;47.028;15.514;2024-02-16T13:05:10;96878.28;;;17.60;37.21
10992;BME280;5549;47.028;15.514;2024-02-16T13:07:40;96882.84;;;17.33;39.05
10992;BME280;5549;47.028;15.514;2024-02-16T13:10:09;96881.75;;;17.52;38.95
10992;BME280;5549;47.028;15.514;2024-02-16T13:12:38;96885.06;;;17.38;38.58
10992;BME280;5549;47.028;15.514;2024-02-16T13:15:10;96883.41;;;17.53;37.57
10992;BME280;5549;47.028;15.514;2024-02-16T13:17:39;96880.59;;;17.63;37.80
10992;BME280;5549;47.028;15.514;2024-02-16T13:20:08;96877.97;;;17.79;36.85